Terminal Aerodrome Forecast
Issued by NWS Burlington, VT

Home | Current Version | Previous Version | Text Only | Print | Product List | Glossary On
Versions: 1 2 3 4 5 6 7 8 9 10 11 12 13 14 15 16 17 18 19 20
308
FTUS41 KBTV 270532
TAFBTV
TAF
KBTV 270532Z 2706/2806 17014G24KT P6SM OVC025
     FM270900 17012G18KT 5SM -RA BR OVC020
     FM271900 18012KT P6SM VCSH OVC025
     FM272200 18008KT P6SM VCSH OVC020
     FM280400 17005KT P6SM VCSH OVC015=

USA.gov is the U.S. government's official web portal to all federal, state and local government web resources and services.